Time;durP1;ratioP1;P1;durP2;ratioP2;P2;SDS_P1;SDS_P2;PMS_P1;PMS_P2;Temp;Humidity;BMP_temperature;BMP_pressure;BME280_temperature;BME280_humidity;BME280_pressure;Samples;Min_cycle;Max_cycle;Signal;HPM_P1;HPM_P2
2023/05/22 00:00:31;;;;;;;13.13;7.20;;;;;;;13.59;93.98;101663.63;4985645;28;20101;-80
2023/05/22 00:02:57;;;;;;;20.15;8.05;;;;;;;13.58;93.60;101663.69;4970397;28;20081;-80
2023/05/22 00:05:23;;;;;;;27.52;9.07;;;;;;;13.50;93.87;101656.09;4983436;28;20042;-80
2023/05/22 00:07:49;;;;;;;21.15;8.55;;;;;;;13.53;94.30;101657.75;4992555;28;20261;-80
2023/05/22 00:10:14;;;;;;;25.08;8.95;;;;;;;13.53;94.38;101658.59;4981468;28;20063;-80
2023/05/22 00:12:39;;;;;;;17.20;7.85;;;;;;;13.58;94.25;101653.16;4978729;28;20206;-80
2023/05/22 00:15:06;;;;;;;17.10;7.63;;;;;;;13.60;93.91;101654.81;4966058;28;20054;-80
2023/05/22 00:17:32;;;;;;;21.27;7.88;;;;;;;13.60;93.77;101653.97;4996700;28;20109;-80
2023/05/22 00:20:05;;;;;;;19.17;8.40;;;;;;;13.58;93.50;101651.38;4978510;28;20410;-80
2023/05/22 00:22:34;;;;;;;26.02;8.82;;;;;;;13.52;93.82;101648.16;4973146;28;20030;-80
2023/05/22 00:25:00;;;;;;;16.63;8.15;;;;;;;13.54;94.46;101654.22;4983022;28;20114;-80
2023/05/22 00:27:26;;;;;;;15.30;8.27;;;;;;;13.52;94.44;101645.53;4994690;28;20045;-80
2023/05/22 00:29:51;;;;;;;14.27;7.40;;;;;;;13.54;94.50;101643.69;4980017;28;20325;-80
2023/05/22 00:32:17;;;;;;;14.75;7.40;;;;;;;13.57;93.97;101644.41;4993592;28;20041;-80
2023/05/22 00:34:42;;;;;;;26.58;9.10;;;;;;;13.53;93.92;101639.34;4999459;28;20046;-80
2023/05/22 00:37:07;;;;;;;25.73;9.13;;;;;;;13.57;93.66;101644.41;4979885;28;20039;-80
2023/05/22 00:39:33;;;;;;;16.80;7.95;;;;;;;13.49;94.10;101643.00;4948300;28;20080;-80
2023/05/22 00:41:58;;;;;;;24.00;9.45;;;;;;;13.49;94.62;101646.50;4979811;28;20050;-80
2023/05/22 00:44:23;;;;;;;20.42;8.23;;;;;;;13.50;94.38;101642.06;4993719;28;20038;-80
2023/05/22 00:46:49;;;;;;;18.77;8.35;;;;;;;13.49;94.25;101640.38;4992061;28;20129;-80
2023/05/22 00:49:15;;;;;;;19.63;8.93;;;;;;;13.45;94.41;101639.66;4963069;28;20225;-80
2023/05/22 00:51:40;;;;;;;20.30;9.10;;;;;;;13.47;94.70;101640.44;4988059;28;20125;-80
2023/05/22 00:54:06;;;;;;;20.10;9.50;;;;;;;13.41;94.91;101643.31;4966339;28;20045;-80
2023/05/22 00:56:35;;;;;;;19.90;9.05;;;;;;;13.42;95.47;101643.28;4999798;28;20080;-80
2023/05/22 00:59:00;;;;;;;15.50;8.48;;;;;;;13.47;95.73;101648.31;4980464;28;20045;-80
2023/05/22 01:01:32;;;;;;;25.35;9.27;;;;;;;13.42;95.44;101643.28;4974839;28;20033;-80
2023/05/22 01:04:00;;;;;;;17.42;9.32;;;;;;;13.42;95.85;101637.13;4964694;28;20035;-80
2023/05/22 01:06:26;;;;;;;20.65;8.52;;;;;;;13.37;95.85;101624.16;4980076;28;20042;-80
2023/05/22 01:08:52;;;;;;;21.75;8.82;;;;;;;13.39;96.27;101632.00;4982432;28;20068;-80
2023/05/22 01:11:41;;;;;;;28.35;10.60;;;;;;;13.29;96.26;101618.31;4979327;28;20381;-80
2023/05/22 01:14:24;;;;;;;27.20;10.18;;;;;;;13.24;96.96;101610.63;4981793;28;20030;-80
2023/05/22 01:16:53;;;;;;;29.38;10.25;;;;;;;13.21;96.88;101620.41;4993746;28;20101;-80
2023/05/22 01:20:00;;;;;;;21.55;9.40;;;;;;;13.23;96.90;101619.41;4982279;28;20264;-80
2023/05/22 01:22:46;;;;;;;19.63;9.60;;;;;;;13.29;96.71;101622.72;4993127;28;20110;-80
2023/05/22 01:25:44;;;;;;;24.10;10.20;;;;;;;13.30;97.04;101616.53;4980555;28;20251;-80
2023/05/22 01:28:37;;;;;;;25.58;11.02;;;;;;;13.24;96.98;101613.25;4996536;28;20046;-80
2023/05/22 01:31:07;;;;;;;24.40;11.40;;;;;;;13.26;96.87;101605.28;4995359;28;20363;-80
2023/05/22 01:33:42;;;;;;;19.95;10.40;;;;;;;13.24;97.02;101600.09;4972463;28;20214;-80
2023/05/22 01:36:09;;;;;;;28.17;12.13;;;;;;;13.18;97.55;101597.69;4995491;28;20034;-80
2023/05/22 01:38:36;;;;;;;26.65;11.50;;;;;;;13.18;97.71;101597.69;4983424;28;20046;-80
2023/05/22 01:41:01;;;;;;;27.60;11.93;;;;;;;13.13;98.21;101596.16;4963820;28;20050;-80
2023/05/22 01:43:27;;;;;;;25.55;12.05;;;;;;;13.17;98.33;101598.63;4981179;28;20215;-80
2023/05/22 01:45:52;;;;;;;28.58;12.07;;;;;;;13.20;97.85;101590.59;4997678;28;20053;-80
2023/05/22 01:48:18;;;;;;;27.45;11.93;;;;;;;13.17;97.82;101576.72;4978426;28;20073;-80
2023/05/22 01:50:44;;;;;;;22.40;12.25;;;;;;;13.20;97.89;101569.56;4998126;28;20310;-80
2023/05/22 01:53:41;;;;;;;21.58;11.98;;;;;;;13.23;97.83;101563.31;4994739;28;20049;-80
2023/05/22 01:56:15;;;;;;;34.92;12.52;;;;;;;13.20;97.25;101568.69;4989890;28;20054;-80
2023/05/22 01:59:00;;;;;;;24.27;11.32;;;;;;;13.18;97.70;101566.13;4992265;28;20038;-80
2023/05/22 02:01:29;;;;;;;23.50;11.57;;;;;;;13.18;97.82;101562.66;4986889;28;20038;-80
2023/05/22 02:03:56;;;;;;;21.48;11.40;;;;;;;13.23;97.90;101563.31;4998295;28;20279;-80
2023/05/22 02:06:27;;;;;;;16.80;10.25;;;;;;;13.25;97.35;101559.69;4979119;28;20326;-80
2023/05/22 02:08:54;;;;;;;13.75;9.30;;;;;;;13.28;96.88;101545.59;4966488;28;20076;-80
2023/05/22 02:11:23;;;;;;;26.20;9.98;;;;;;;13.31;96.28;101552.53;4979343;28;20054;-80
2023/05/22 02:13:50;;;;;;;17.88;9.00;;;;;;;13.33;95.73;101553.31;4978941;28;20096;-80
2023/05/22 02:16:15;;;;;;;13.02;7.80;;;;;;;13.34;95.00;101550.63;4974840;28;20265;-80
2023/05/22 02:18:42;;;;;;;14.27;8.25;;;;;;;13.38;94.80;101557.47;4997183;28;20038;-80
2023/05/22 02:21:07;;;;;;;14.45;8.15;;;;;;;13.39;94.05;101548.66;4981143;28;20045;-80
2023/05/22 02:23:33;;;;;;;14.50;8.05;;;;;;;13.41;93.56;101546.81;4963967;28;20046;-80
2023/05/22 02:25:59;;;;;;;23.48;11.35;;;;;;;13.40;93.70;101552.13;4961542;28;20034;-80
2023/05/22 02:28:24;;;;;;;18.92;9.90;;;;;;;13.40;94.11;101547.72;4988078;28;20053;-80
2023/05/22 02:30:50;;;;;;;24.17;11.98;;;;;;;13.35;94.02;101536.56;4978205;28;20046;-80
2023/05/22 02:33:17;;;;;;;20.83;9.80;;;;;;;13.39;94.27;101534.66;4961963;28;20064;-83
2023/05/22 02:35:43;;;;;;;14.02;9.10;;;;;;;13.40;93.84;101528.47;4961112;28;20101;-83
2023/05/22 02:38:09;;;;;;;21.45;11.43;;;;;;;13.38;93.55;101535.56;4963938;28;20038;-83
2023/05/22 02:40:34;;;;;;;18.65;10.60;;;;;;;13.38;93.98;101538.19;4964267;28;20241;-83
2023/05/22 02:43:00;;;;;;;23.15;10.90;;;;;;;13.37;93.87;101536.47;4954514;28;20104;-83
2023/05/22 02:45:25;;;;;;;18.90;10.10;;;;;;;13.35;94.12;101538.31;4961861;28;20054;-83
2023/05/22 02:47:50;;;;;;;15.55;9.65;;;;;;;13.34;94.52;101537.47;4968337;28;20400;-83
2023/05/22 02:50:16;;;;;;;17.00;9.52;;;;;;;13.35;94.00;101548.84;4979450;28;20069;-83
2023/05/22 02:52:44;;;;;;;15.90;9.80;;;;;;;13.34;94.36;101542.72;4969416;28;20046;-83
2023/05/22 02:55:10;;;;;;;16.52;9.60;;;;;;;13.32;93.87;101533.19;4987447;28;20344;-83
2023/05/22 02:57:35;;;;;;;17.52;10.05;;;;;;;13.31;94.24;101534.97;4990182;28;20046;-83
2023/05/22 03:00:02;;;;;;;18.10;9.32;;;;;;;13.32;93.72;101533.19;5009418;28;20352;-83
2023/05/22 03:02:28;;;;;;;21.73;10.60;;;;;;;13.29;93.76;101536.75;4977528;28;20042;-83
2023/05/22 03:04:57;;;;;;;18.75;10.23;;;;;;;13.26;94.37;101536.88;4946005;28;20233;-83
2023/05/22 03:07:25;;;;;;;20.23;9.70;;;;;;;13.29;94.24;101535.91;4975492;28;20030;-83
2023/05/22 03:09:51;;;;;;;21.83;10.23;;;;;;;13.29;93.51;101547.28;4977455;28;20050;-83
2023/05/22 03:12:16;;;;;;;17.73;9.55;;;;;;;13.29;93.50;101551.69;4981953;28;20076;-83
2023/05/22 03:14:41;;;;;;;29.63;10.95;;;;;;;13.29;93.38;101562.22;4997468;28;20043;-83
2023/05/22 03:17:07;;;;;;;18.73;10.63;;;;;;;13.27;93.42;101557.03;4986074;28;20225;-83
2023/05/22 03:19:32;;;;;;;16.38;8.98;;;;;;;13.26;93.31;101555.28;4949999;28;20099;-83
2023/05/22 03:21:58;;;;;;;21.67;11.23;;;;;;;13.23;93.68;101551.03;4965427;28;20121;-83
2023/05/22 03:24:23;;;;;;;18.88;10.70;;;;;;;13.23;94.17;101561.53;4985757;28;20041;-83
2023/05/22 03:26:48;;;;;;;17.23;10.13;;;;;;;13.21;93.68;101554.66;4995105;28;20070;-83
2023/05/22 03:29:14;;;;;;;15.77;9.75;;;;;;;13.22;93.76;101544.06;4969515;28;20349;-83
2023/05/22 03:31:39;;;;;;;25.65;11.43;;;;;;;13.15;93.90;101544.34;4983153;28;20075;-83
2023/05/22 03:34:06;;;;;;;18.77;10.13;;;;;;;13.19;94.43;101540.72;4982197;28;20101;-83
2023/05/22 03:36:34;;;;;;;19.70;10.10;;;;;;;13.18;94.21;101536.34;5001534;28;20038;-83
2023/05/22 03:39:03;;;;;;;20.17;10.20;;;;;;;13.19;94.12;101543.34;4983754;28;20054;-83
2023/05/22 03:41:29;;;;;;;19.48;10.68;;;;;;;13.18;94.10;101546.88;4990020;28;20057;-83
2023/05/22 03:43:54;;;;;;;19.83;11.15;;;;;;;13.18;94.26;101546.88;4982956;28;20039;-83
2023/05/22 03:46:20;;;;;;;21.15;11.63;;;;;;;13.18;94.51;101541.63;4965473;28;20129;-83
2023/05/22 03:48:45;;;;;;;22.17;12.77;;;;;;;13.15;95.00;101546.97;4961393;28;20057;-83
2023/05/22 03:51:10;;;;;;;21.58;11.43;;;;;;;13.15;95.27;101550.50;4967451;28;20042;-83
2023/05/22 03:53:36;;;;;;;25.58;11.68;;;;;;;13.16;95.23;101549.56;4988166;28;20066;-83
2023/05/22 03:56:01;;;;;;;16.83;11.05;;;;;;;13.17;95.38;101548.66;4948600;28;20233;-83
2023/05/22 03:58:27;;;;;;;20.52;11.40;;;;;;;13.18;95.28;101541.63;4975026;28;20041;-83
2023/05/22 04:00:54;;;;;;;20.58;10.98;;;;;;;13.19;95.02;101543.34;4982746;28;20113;-83
2023/05/22 04:03:20;;;;;;;22.05;12.43;;;;;;;13.18;95.39;101534.56;4998055;28;20202;-83
2023/05/22 04:05:46;;;;;;;27.95;13.68;;;;;;;13.20;95.43;101547.66;4982047;28;20381;-83
2023/05/22 04:08:11;;;;;;;22.45;11.88;;;;;;;13.21;95.60;101539.72;4978353;28;20080;-83
2023/05/22 04:10:37;;;;;;;18.65;11.02;;;;;;;13.23;95.12;101544.91;4950930;28;20125;-83
2023/05/22 04:13:03;;;;;;;22.85;12.00;;;;;;;13.24;94.94;101534.34;5000740;28;20097;-83
2023/05/22 04:15:32;;;;;;;30.85;13.43;;;;;;;13.24;95.06;101541.34;4965879;28;20043;-83
2023/05/22 04:17:58;;;;;;;;;;;;;;;13.27;95.36;101540.38;4981902;28;20390;-83
2023/05/22 04:20:23;;;;;;;23.38;12.57;;;;;;;13.25;95.25;101543.91;4997970;28;20155;-83
2023/05/22 04:22:49;;;;;;;34.47;13.75;;;;;;;13.26;96.09;101544.78;4982400;28;20038;-83
2023/05/22 04:25:15;;;;;;;21.58;12.02;;;;;;;13.28;96.08;101537.69;4983944;28;20093;-83
2023/05/22 04:27:41;;;;;;;33.17;14.98;;;;;;;13.24;95.84;101541.34;4983290;28;20050;-83
2023/05/22 04:30:07;;;;;;;29.15;13.05;;;;;;;13.27;96.57;101546.50;4953279;28;20042;-83
2023/05/22 04:32:35;;;;;;;21.45;12.55;;;;;;;13.28;96.26;101545.59;4963468;28;20038;-83
2023/05/22 04:35:01;;;;;;;22.33;11.27;;;;;;;13.31;96.27;101542.84;4970046;28;20026;-83
2023/05/22 04:37:27;;;;;;;23.45;11.55;;;;;;;13.31;95.96;101553.38;4992942;28;20060;-83
2023/05/22 04:39:57;;;;;;;27.33;11.55;;;;;;;13.33;95.75;101545.41;4963374;28;20050;-83
2023/05/22 04:42:24;;;;;;;29.70;12.23;;;;;;;13.34;95.47;101548.00;4987915;28;20046;-83
2023/05/22 04:44:51;;;;;;;33.28;12.70;;;;;;;13.32;95.95;101549.84;4982038;28;20436;-83
2023/05/22 04:47:18;;;;;;;21.63;11.43;;;;;;;13.35;95.78;101548.84;4983124;28;20073;-83
2023/05/22 04:49:44;;;;;;;23.65;11.32;;;;;;;13.35;95.35;101554.09;4999547;28;20065;-83
2023/05/22 04:52:10;;;;;;;21.15;10.50;;;;;;;13.36;95.34;101550.56;4982812;28;20045;-83
2023/05/22 04:54:37;;;;;;;26.95;12.00;;;;;;;13.37;95.06;101550.50;4999435;28;20038;-83
2023/05/22 04:57:03;;;;;;;30.42;12.07;;;;;;;13.39;94.84;101550.44;4998863;28;20041;-83
2023/05/22 04:59:32;;;;;;;24.52;11.13;;;;;;;13.39;94.62;101556.56;5003164;28;20057;-83
2023/05/22 05:01:57;;;;;;;28.58;13.57;;;;;;;13.34;95.67;101555.03;5000154;28;20034;-83
2023/05/22 05:04:23;;;;;;;29.73;14.20;;;;;;;13.32;95.99;101552.47;4963091;28;20039;-83
2023/05/22 05:06:48;;;;;;;35.85;13.85;;;;;;;13.31;96.47;101550.75;4979952;28;20039;-83
2023/05/22 05:09:14;;;;;;;31.52;13.32;;;;;;;13.29;97.30;101554.34;4994039;28;20376;-83
2023/05/22 05:11:39;;;;;;;32.33;13.10;;;;;;;13.31;96.95;101555.16;4980901;28;20050;-83
2023/05/22 05:14:05;;;;;;;30.27;13.13;;;;;;;13.22;97.49;101553.72;4989339;28;20042;-83
2023/05/22 05:16:30;;;;;;;27.73;11.90;;;;;;;13.25;97.60;101562.34;4963707;28;20118;-83
2023/05/22 05:18:55;;;;;;;22.60;12.40;;;;;;;13.29;97.95;101554.34;4981557;28;20109;-83
2023/05/22 05:21:21;;;;;;;28.33;11.40;;;;;;;13.34;97.48;101558.50;4986766;28;20072;-83
2023/05/22 05:23:47;;;;;;;22.58;11.27;;;;;;;13.37;97.11;101562.78;4960950;28;20042;-83
2023/05/22 05:26:12;;;;;;;25.75;11.00;;;;;;;13.41;96.53;101570.50;4980595;28;20035;-83
2023/05/22 05:28:38;;;;;;;27.90;11.48;;;;;;;13.43;96.35;101567.81;4986653;28;20054;-83
2023/05/22 05:31:04;;;;;;;20.63;10.60;;;;;;;13.46;95.76;101566.81;4977521;28;20046;-83
2023/05/22 05:33:29;;;;;;;23.88;10.65;;;;;;;13.48;95.87;101571.13;4977412;28;20049;-83
2023/05/22 05:35:55;;;;;;;26.40;10.27;;;;;;;13.52;95.86;101571.84;4978808;28;20049;-83
2023/05/22 05:38:21;;;;;;;27.23;11.50;;;;;;;13.52;96.44;101569.22;4982906;28;20362;-83
2023/05/22 05:40:47;;;;;;;23.83;11.80;;;;;;;13.50;97.40;101571.03;4979772;28;20050;-83
2023/05/22 05:43:14;;;;;;;27.05;11.13;;;;;;;13.52;97.33;101577.09;4983107;28;20046;-83
2023/05/22 05:45:40;;;;;;;24.65;11.35;;;;;;;13.49;97.66;101570.19;4981005;28;20044;-83
2023/05/22 05:48:05;;;;;;;25.45;10.57;;;;;;;13.53;97.45;101573.53;4981158;28;20046;-83
2023/05/22 05:50:31;;;;;;;35.45;13.43;;;;;;;13.51;97.45;101583.28;4981239;28;20356;-83
2023/05/22 05:52:56;;;;;;;33.20;13.27;;;;;;;13.53;97.95;101579.66;4998119;28;20045;-83
2023/05/22 05:55:22;;;;;;;28.48;13.70;;;;;;;13.54;98.30;101583.16;4984907;28;20037;-83
2023/05/22 05:57:47;;;;;;;31.15;15.85;;;;;;;13.53;98.48;101591.97;4963403;28;20322;-83
2023/05/22 06:00:13;;;;;;;32.63;14.95;;;;;;;13.53;99.03;101584.06;4978086;28;20049;-83
2023/05/22 06:02:38;;;;;;;39.60;17.23;;;;;;;13.58;99.25;101587.38;4981297;28;20056;-83
2023/05/22 06:05:04;;;;;;;27.80;14.05;;;;;;;13.63;99.29;101581.00;4986914;28;20053;-83
2023/05/22 06:07:30;;;;;;;29.48;14.55;;;;;;;13.70;98.75;101586.00;4992062;28;20049;-83
2023/05/22 06:09:57;;;;;;;34.40;16.50;;;;;;;13.74;98.38;101598.97;4980657;28;20269;-83
2023/05/22 06:12:23;;;;;;;35.38;15.82;;;;;;;13.83;98.58;101600.38;4997974;28;20034;-84
2023/05/22 06:14:48;;;;;;;33.38;15.30;;;;;;;13.88;98.59;101602.78;4997672;28;20038;-83
2023/05/22 06:17:14;;;;;;;30.33;16.77;;;;;;;13.89;98.07;101599.25;4969341;28;20268;-83
2023/05/22 06:19:41;;;;;;;28.92;15.55;;;;;;;13.94;97.89;101606.03;4986841;28;20574;-84
2023/05/22 06:22:06;;;;;;;37.70;16.75;;;;;;;13.98;98.00;101607.59;4979035;28;20046;-83
2023/05/22 06:24:32;;;;;;;35.05;17.17;;;;;;;14.04;98.09;101608.28;4965717;28;20405;-83
2023/05/22 06:26:58;;;;;;;37.22;18.13;;;;;;;14.05;97.91;101617.91;4980446;28;20048;-83
2023/05/22 06:29:23;;;;;;;39.88;17.33;;;;;;;14.10;98.71;101608.00;4979541;28;20214;-83
2023/05/22 06:31:49;;;;;;;38.92;16.27;;;;;;;14.15;98.36;101606.03;4963185;28;20058;-84
2023/05/22 06:34:14;;;;;;;38.42;18.15;;;;;;;14.19;98.75;101613.75;4995600;28;20241;-83
2023/05/22 06:36:44;;;;;;;32.28;17.30;;;;;;;14.25;98.58;101620.50;4995707;28;20346;-83
2023/05/22 06:39:10;;;;;;;34.78;17.00;;;;;;;14.30;98.43;101623.81;4978904;28;20049;-83
2023/05/22 06:41:35;;;;;;;40.20;17.30;;;;;;;14.31;98.02;101629.94;4994766;28;20042;-83
2023/05/22 06:44:01;;;;;;;40.22;16.63;;;;;;;14.35;97.69;101621.84;4996871;28;20038;-83
2023/05/22 06:46:27;;;;;;;40.28;17.02;;;;;;;14.38;97.40;101620.84;4997266;28;20034;-83
2023/05/22 06:48:53;;;;;;;33.75;15.57;;;;;;;14.41;97.48;101623.34;4977722;28;20030;-83
2023/05/22 06:51:19;;;;;;;38.45;17.00;;;;;;;14.39;96.87;101623.41;4978399;28;20038;-83
2023/05/22 06:53:45;;;;;;;28.38;14.85;;;;;;;14.44;97.00;101622.34;4996559;28;20076;-83
2023/05/22 06:56:10;;;;;;;33.00;16.30;;;;;;;14.45;96.84;101624.06;4946442;28;20034;-83
2023/05/22 06:58:35;;;;;;;36.28;16.55;;;;;;;14.46;96.82;101624.00;4961090;28;20030;-83
2023/05/22 07:01:01;;;;;;;36.63;17.05;;;;;;;14.48;96.75;101626.53;4996638;28;20034;-83
2023/05/22 07:03:26;;;;;;;37.00;17.35;;;;;;;14.50;96.75;101624.72;4976519;28;20073;-83
2023/05/22 07:05:55;;;;;;;27.15;15.05;;;;;;;14.55;96.23;101631.50;4994464;28;20089;-83
2023/05/22 07:08:21;;;;;;;;;;;;;;;14.61;95.42;101622.47;4997401;28;20034;-83
2023/05/22 07:10:46;;;;;;;31.77;15.55;;;;;;;14.64;95.15;101630.22;4995162;28;19932;-83
2023/05/22 07:13:12;;;;;;;32.38;16.30;;;;;;;14.69;95.65;101630.88;4964189;28;20037;-83
2023/05/22 07:15:37;;;;;;;33.15;16.25;;;;;;;14.71;95.99;101622.91;4995980;28;20211;-83
2023/05/22 07:18:03;;;;;;;33.13;15.57;;;;;;;14.78;95.83;101629.63;4968762;28;20057;-83
2023/05/22 07:20:28;;;;;;;36.40;16.25;;;;;;;14.82;95.71;101635.59;4968610;28;20400;-83
2023/05/22 07:22:53;;;;;;;35.50;16.73;;;;;;;14.84;95.35;101625.84;4994480;28;20038;-83
2023/05/22 07:25:19;;;;;;;47.33;19.05;;;;;;;14.81;96.07;101628.59;4981451;28;20057;-83
2023/05/22 07:27:44;;;;;;;40.20;17.38;;;;;;;14.85;96.49;101625.78;4998630;28;20052;-83
2023/05/22 07:30:10;;;;;;;29.98;16.40;;;;;;;14.90;95.68;101628.22;4993961;28;20081;-83
2023/05/22 07:32:35;;;;;;;35.67;17.48;;;;;;;14.97;95.68;101626.97;4990992;28;20379;-83
2023/05/22 07:35:01;;;;;;;35.03;17.23;;;;;;;15.03;95.21;101634.63;4992980;28;20034;-83
2023/05/22 07:37:26;;;;;;;37.92;15.77;;;;;;;15.10;94.94;101629.91;4983276;28;20030;-84
2023/05/22 07:39:52;;;;;;;37.45;16.00;;;;;;;15.17;95.24;101636.59;4962763;28;20034;-84
2023/05/22 07:42:17;;;;;;;31.33;15.43;;;;;;;15.25;95.03;101638.88;4948718;28;20408;-83
2023/05/22 07:44:42;;;;;;;30.35;15.05;;;;;;;15.27;94.78;101635.22;4993899;28;20046;-83
2023/05/22 07:47:08;;;;;;;29.33;14.77;;;;;;;15.32;94.52;101642.94;4978436;28;20049;-83
2023/05/22 07:49:33;;;;;;;29.08;14.02;;;;;;;15.38;94.08;101641.78;4986032;28;20085;-83
2023/05/22 07:51:59;;;;;;;24.65;12.68;;;;;;;15.43;93.33;101642.44;4988948;28;20194;-83
2023/05/22 07:54:24;;;;;;;31.15;14.32;;;;;;;15.49;93.20;101637.69;4968318;28;20042;-84
2023/05/22 07:56:51;;;;;;;21.40;11.13;;;;;;;15.56;92.74;101640.91;4987407;28;20048;-84
2023/05/22 07:59:18;;;;;;;24.23;12.45;;;;;;;15.61;92.62;101638.88;4997639;28;20295;-83
2023/05/22 08:01:44;;;;;;;25.27;12.20;;;;;;;15.67;92.13;101629.81;4989837;28;20130;-83
2023/05/22 08:04:09;;;;;;;34.30;16.15;;;;;;;15.73;94.38;101640.06;4998767;28;20232;-83
2023/05/22 08:06:35;;;;;;;32.40;16.00;;;;;;;15.79;93.96;101642.44;4974505;28;20042;-83
2023/05/22 08:09:01;;;;;;;39.60;17.17;;;;;;;15.83;94.28;101641.34;4986355;28;20038;-84
2023/05/22 08:11:27;;;;;;;35.30;17.40;;;;;;;15.88;94.41;101641.97;4955191;28;20105;-83
2023/05/22 08:13:53;;;;;;;33.55;16.42;;;;;;;15.93;94.56;101639.97;4985351;28;20142;-83
2023/05/22 08:16:18;;;;;;;23.40;13.80;;;;;;;16.00;94.17;101637.00;5002161;28;20046;-83
2023/05/22 08:18:43;;;;;;;33.85;16.17;;;;;;;16.07;93.92;101636.59;4980577;28;20038;-84
2023/05/22 08:21:09;;;;;;;32.95;16.33;;;;;;;16.17;94.99;101636.13;4981356;28;20070;-83
2023/05/22 08:23:35;;;;;;;35.40;16.67;;;;;;;16.22;94.36;101629.66;4998449;28;20046;-83
2023/05/22 08:26:01;;;;;;;25.83;14.40;;;;;;;16.27;93.21;101629.44;4999212;28;20113;-84
2023/05/22 08:28:26;;;;;;;37.60;17.00;;;;;;;16.29;92.97;101636.34;4998962;28;20275;-83
2023/05/22 08:30:53;;;;;;;31.45;17.77;;;;;;;16.33;93.16;101633.56;4995246;28;20042;-84
2023/05/22 08:33:19;;;;;;;37.90;18.33;;;;;;;16.34;92.58;101628.19;4980123;28;20369;-84
2023/05/22 08:35:44;;;;;;;27.65;14.75;;;;;;;16.41;92.67;101628.69;4994027;28;20109;-84
2023/05/22 08:38:10;;;;;;;28.17;16.58;;;;;;;16.47;92.49;101625.75;4991145;28;20068;-84
2023/05/22 08:40:37;;;;;;;31.52;16.13;;;;;;;16.50;91.91;101620.31;4981826;28;20030;-83
2023/05/22 08:43:04;;;;;;;27.40;16.30;;;;;;;16.54;91.43;101623.66;4982573;28;20050;-83
2023/05/22 08:45:32;;;;;;;32.08;17.02;;;;;;;16.60;91.65;101620.66;4959165;28;20594;-84
2023/05/22 08:47:59;;;;;;;29.92;16.25;;;;;;;16.65;91.67;101619.47;4965274;28;20335;-84
2023/05/22 08:50:24;;;;;;;24.50;14.13;;;;;;;16.73;91.59;101620.84;4981242;28;20153;-83
2023/05/22 08:52:51;;;;;;;25.35;14.55;;;;;;;16.78;90.92;101616.19;4997903;28;20050;-83
2023/05/22 08:55:18;;;;;;;30.75;15.73;;;;;;;16.84;91.33;101613.22;4969262;28;20048;-84
2023/05/22 08:57:44;;;;;;;19.30;14.10;;;;;;;16.91;91.10;101614.59;4978690;28;20222;-84
2023/05/22 09:00:11;;;;;;;30.17;15.15;;;;;;;16.99;91.96;101617.69;4987879;28;20050;-83
2023/05/22 09:02:41;;;;;;;27.90;15.68;;;;;;;17.07;90.80;101619.91;4981616;28;20049;-83
2023/05/22 09:05:08;;;;;;;26.70;14.73;;;;;;;17.17;90.66;101614.94;5007724;28;20040;-83
2023/05/22 09:07:33;;;;;;;24.60;14.90;;;;;;;17.21;89.25;101619.13;4991631;28;20041;-83
2023/05/22 09:10:00;;;;;;;26.83;14.32;;;;;;;17.28;89.08;101620.47;4983138;28;20589;-83
2023/05/22 09:12:28;;;;;;;35.45;15.48;;;;;;;17.31;88.51;101622.94;5004530;28;20038;-84
2023/05/22 09:14:54;;;;;;;24.52;14.73;;;;;;;17.36;88.96;101620.91;5002676;28;20037;-84
2023/05/22 09:17:20;;;;;;;29.88;13.90;;;;;;;17.42;88.42;101623.19;5000173;28;20042;-84
2023/05/22 09:19:46;;;;;;;23.17;14.90;;;;;;;17.52;88.50;101622.66;4969495;28;20395;-84
2023/05/22 09:22:12;;;;;;;25.40;14.23;;;;;;;17.60;88.30;101617.78;4995561;28;20082;-84
2023/05/22 09:24:43;;;;;;;33.83;14.52;;;;;;;17.64;87.00;101619.31;4986809;28;20034;-84
2023/05/22 09:27:09;;;;;;;18.98;12.20;;;;;;;17.68;87.24;101618.19;4996487;28;20415;-84
2023/05/22 09:29:52;;;;;;;22.75;13.57;;;;;;;17.73;86.49;101634.66;4998439;28;20383;-83
2023/05/22 09:32:18;;;;;;;20.75;14.52;;;;;;;17.80;85.98;101625.41;4992905;28;20124;-83
2023/05/22 09:34:45;;;;;;;21.42;13.95;;;;;;;17.86;86.32;101623.38;4999414;28;20034;-84
2023/05/22 09:37:14;;;;;;;24.63;14.02;;;;;;;17.88;85.51;101618.84;4965177;28;20113;-84
2023/05/22 09:39:51;;;;;;;24.75;13.65;;;;;;;18.01;87.41;101619.84;4974694;28;20039;-83
2023/05/22 09:42:17;;;;;;;25.10;14.07;;;;;;;18.07;86.13;101621.28;4953127;28;20097;-84
2023/05/22 09:44:47;;;;;;;25.65;13.52;;;;;;;18.10;85.58;101619.28;4980106;28;20104;-84
2023/05/22 09:47:13;;;;;;;20.80;12.90;;;;;;;18.16;85.01;101613.59;4981747;28;20066;-84
2023/05/22 09:49:43;;;;;;;20.50;12.95;;;;;;;18.19;84.54;101610.78;4979099;28;20069;-84
2023/05/22 09:52:11;;;;;;;22.48;13.00;;;;;;;18.26;83.74;101621.00;4980353;28;20288;-83
2023/05/22 09:54:44;;;;;;;18.27;11.93;;;;;;;18.29;83.79;101604.91;4981163;28;20549;-84
2023/05/22 09:57:17;;;;;;;19.63;13.40;;;;;;;18.36;84.40;101601.78;4974667;28;20018;-84
2023/05/22 09:59:46;;;;;;;22.20;12.90;;;;;;;18.42;84.85;101603.19;4996556;28;20046;-84
2023/05/22 10:02:12;;;;;;;19.40;11.90;;;;;;;18.47;85.85;101602.94;4992396;28;20046;-84
2023/05/22 10:04:40;;;;;;;26.38;12.50;;;;;;;18.53;85.47;101603.38;4984103;28;20269;-84
2023/05/22 10:07:08;;;;;;;22.70;11.52;;;;;;;18.57;85.04;101601.41;4975582;28;20039;-84
2023/05/22 10:09:37;;;;;;;18.02;11.32;;;;;;;18.55;83.94;101609.44;4983265;28;20042;-84
2023/05/22 10:12:06;;;;;;;23.55;13.73;;;;;;;18.59;84.07;101607.44;4984199;28;20112;-84
2023/05/22 10:14:33;;;;;;;23.08;11.68;;;;;;;18.62;84.35;101609.94;4977133;28;20102;-84
2023/05/22 10:17:03;;;;;;;20.85;12.13;;;;;;;18.68;84.11;101611.34;4970223;28;20301;-84
2023/05/22 10:19:31;;;;;;;23.50;13.73;;;;;;;18.75;82.16;101612.66;4962545;28;20042;-84
2023/05/22 10:21:59;;;;;;;20.17;12.45;;;;;;;18.74;82.24;101624.25;4979447;28;20038;-83
2023/05/22 10:24:25;;;;;;;22.58;11.43;;;;;;;18.77;82.60;101624.03;4976575;28;20437;-84
2023/05/22 10:26:52;;;;;;;23.83;11.52;;;;;;;18.73;83.14;101609.25;4978748;28;20042;-84
2023/05/22 10:29:28;;;;;;;31.15;10.10;;;;;;;18.73;82.85;101615.41;4986153;28;20120;-84
2023/05/22 10:32:00;;;;;;;30.48;11.10;;;;;;;18.72;81.52;101619.03;4990136;28;20035;-84
2023/05/22 10:34:37;;;;;;;24.67;9.65;;;;;;;18.73;82.28;101623.38;4982285;28;20030;-84
2023/05/22 10:37:25;;;;;;;23.65;10.32;;;;;;;18.75;81.65;101624.13;4997446;28;20046;-84
2023/05/22 10:40:01;;;;;;;21.98;8.95;;;;;;;18.77;81.67;101622.25;4984877;28;20070;-84
2023/05/22 10:42:33;;;;;;;24.45;9.73;;;;;;;18.82;81.62;101621.13;4975729;28;20044;-84
2023/05/22 10:45:03;;;;;;;27.60;9.52;;;;;;;18.83;81.08;101617.50;4997418;28;20041;-84
2023/05/22 10:47:28;;;;;;;29.98;10.52;;;;;;;18.83;80.79;101615.72;4977634;28;20056;-84
2023/05/22 10:50:03;;;;;;;26.88;10.50;;;;;;;18.86;80.79;101617.31;4997649;28;20042;-84
2023/05/22 10:52:28;;;;;;;21.83;8.88;;;;;;;18.88;81.14;101612.78;4969194;28;20030;-84
2023/05/22 10:54:55;;;;;;;15.52;7.82;;;;;;;18.91;81.43;101605.47;4973783;28;20308;-84
2023/05/22 10:57:23;;;;;;;12.23;7.90;;;;;;;18.97;81.13;101607.75;4974584;28;20112;-84
2023/05/22 10:59:49;;;;;;;21.63;10.07;;;;;;;19.02;81.18;101617.22;4996125;28;20026;-84
2023/05/22 11:02:20;;;;;;;17.40;7.78;;;;;;;19.07;81.02;101609.81;4984529;28;20248;-84
2023/05/22 11:04:45;;;;;;;15.27;8.35;;;;;;;19.11;81.08;101609.50;4960451;28;20034;-84
2023/05/22 11:07:13;;;;;;;19.88;8.60;;;;;;;19.15;81.40;101604.84;4967654;28;20093;-84
2023/05/22 11:09:47;;;;;;;29.52;11.15;;;;;;;19.20;80.90;101604.56;4944736;28;20041;-84
2023/05/22 11:12:15;;;;;;;19.92;10.13;;;;;;;19.19;79.14;101603.69;4979150;28;20038;-84